Time;durP1;ratioP1;P1;durP2;ratioP2;P2;SDS_P1;SDS_P2;PMS_P1;PMS_P2;Temp;Humidity;BMP_temperature;BMP_pressure;BME280_temperature;BME280_humidity;BME280_pressure;Samples;Min_cycle;Max_cycle;Signal;HPM_P1;HPM_P2
2023/07/17 00:00:29;;;;;;;3.35;1.50;;;;;;;14.13;100.00;100694.78;5058165;28;20430;-48
2023/07/17 00:02:55;;;;;;;3.10;0.43;;;;;;;14.11;100.00;100699.50;5057305;28;20136;-49
2023/07/17 00:05:21;;;;;;;1.13;0.90;;;;;;;14.02;100.00;100699.94;5048246;28;20115;-49
2023/07/17 00:07:47;;;;;;;5.38;1.73;;;;;;;13.99;100.00;100706.50;5045121;28;20500;-47
2023/07/17 00:10:13;;;;;;;0.88;0.50;;;;;;;13.95;100.00;100706.13;5048841;28;20033;-49
2023/07/17 00:12:39;;;;;;;4.32;1.20;;;;;;;13.88;100.00;100712.47;5045127;28;20124;-50
2023/07/17 00:15:05;;;;;;;0.88;0.47;;;;;;;14.05;100.00;100705.69;5046946;28;20028;-47
2023/07/17 00:17:31;;;;;;;2.63;0.70;;;;;;;13.91;100.00;100706.72;5045440;28;20032;-50
2023/07/17 00:19:57;;;;;;;3.20;0.75;;;;;;;13.86;100.00;100711.84;5043361;28;20033;-50
2023/07/17 00:22:25;;;;;;;0.95;0.20;;;;;;;13.96;100.00;100698.94;5049840;28;20120;-49
2023/07/17 00:24:51;;;;;;;0.30;0.10;;;;;;;13.67;100.00;100711.66;5048966;28;20124;-48
2023/07/17 00:27:17;;;;;;;2.15;0.63;;;;;;;13.41;100.00;100720.47;5050799;28;20064;-47
2023/07/17 00:29:44;;;;;;;1.63;1.38;;;;;;;13.67;100.00;100713.53;5046028;28;20145;-48
2023/07/17 00:32:12;;;;;;;1.77;0.50;;;;;;;13.25;100.00;100716.34;5052179;28;20437;-49
2023/07/17 00:34:38;;;;;;;2.83;0.55;;;;;;;13.18;100.00;100722.66;5052605;28;20033;-48
2023/07/17 00:37:04;;;;;;;1.45;0.43;;;;;;;13.34;100.00;100716.16;5039389;28;20032;-47
2023/07/17 00:39:30;;;;;;;2.13;1.08;;;;;;;13.03;100.00;100721.00;5046813;28;20035;-52
2023/07/17 00:41:55;;;;;;;3.42;0.68;;;;;;;13.39;100.00;100721.72;5044876;28;20589;-49
2023/07/17 00:44:20;;;;;;;0.82;0.35;;;;;;;13.25;100.00;100708.34;5050916;28;20559;-47
2023/07/17 00:46:47;;;;;;;1.15;0.45;;;;;;;12.94;100.00;100721.41;5049274;28;20031;-46
2023/07/17 00:49:13;;;;;;;1.13;0.35;;;;;;;13.24;100.00;100720.03;5048748;28;20429;-46
2023/07/17 00:51:39;;;;;;;0.60;0.57;;;;;;;13.21;100.00;100719.59;5044165;28;20044;-46
2023/07/17 00:54:07;;;;;;;2.72;0.88;;;;;;;12.91;100.00;100727.09;5041564;28;20043;-48
2023/07/17 00:56:32;;;;;;;4.05;1.40;;;;;;;13.23;100.00;100726.38;5043425;28;20059;-46
2023/07/17 00:58:58;;;;;;;1.70;1.00;;;;;;;13.01;100.00;100738.19;5054109;28;20521;-47
2023/07/17 01:01:25;;;;;;;1.83;1.38;;;;;;;13.24;100.00;100732.50;5052451;28;20557;-48
2023/07/17 01:03:54;;;;;;;0.60;0.32;;;;;;;13.07;100.00;100742.72;5056184;28;20115;-47
2023/07/17 01:06:19;;;;;;;4.38;0.82;;;;;;;13.43;100.00;100737.09;5045511;28;20032;-47
2023/07/17 01:08:45;;;;;;;1.70;0.52;;;;;;;13.38;100.00;100731.53;5052449;28;20035;-51
2023/07/17 01:11:11;;;;;;;4.25;0.50;;;;;;;13.14;100.00;100740.91;5052882;28;20032;-50
2023/07/17 01:13:47;;;;;;;1.90;0.50;;;;;;;13.08;100.00;100733.69;5050121;28;20055;-50
2023/07/17 01:16:13;;;;;;;1.77;0.82;;;;;;;13.27;100.00;100732.16;5051573;28;20036;-46
2023/07/17 01:18:39;;;;;;;1.35;0.45;;;;;;;13.20;100.00;100740.09;5047587;28;20029;-48
2023/07/17 01:21:07;;;;;;;1.77;0.90;;;;;;;13.06;100.00;100741.06;5042599;28;20032;-48
2023/07/17 01:23:33;;;;;;;2.28;0.90;;;;;;;12.77;100.00;100737.69;5042767;28;20267;-48
2023/07/17 01:25:58;;;;;;;2.70;0.17;;;;;;;12.60;100.00;100749.72;5051596;28;20496;-50
2023/07/17 01:28:24;;;;;;;2.50;0.50;;;;;;;12.92;100.00;100742.88;5046593;28;20033;-51
2023/07/17 01:30:49;;;;;;;0.55;0.52;;;;;;;12.90;100.00;100749.41;5052141;28;20032;-45
2023/07/17 01:33:14;;;;;;;1.25;0.73;;;;;;;12.58;100.00;100751.75;5055154;28;20684;-47
2023/07/17 01:35:40;;;;;;;2.78;0.65;;;;;;;12.80;100.00;100750.63;5053963;28;20029;-45
2023/07/17 01:38:06;;;;;;;4.43;0.30;;;;;;;12.48;100.00;100759.28;5049859;28;20083;-47
2023/07/17 01:40:31;;;;;;;4.78;0.13;;;;;;;12.65;100.00;100756.09;5049157;28;20036;-46
2023/07/17 01:42:57;;;;;;;6.70;1.55;;;;;;;12.66;100.00;100752.41;5056815;28;20036;-48
2023/07/17 01:45:22;;;;;;;4.78;0.20;;;;;;;12.79;100.00;100759.63;5049279;28;20342;-47
2023/07/17 01:47:49;;;;;;;0.65;0.30;;;;;;;12.89;100.00;100761.91;5050964;28;20068;-48
2023/07/17 01:50:14;;;;;;;0.65;0.65;;;;;;;13.05;100.00;100756.22;5054970;28;20025;-49
2023/07/17 01:52:39;;;;;;;3.08;0.82;;;;;;;12.98;100.00;100758.03;5061262;28;20080;-47
2023/07/17 01:55:05;;;;;;;2.13;0.50;;;;;;;13.12;100.00;100756.25;5048878;28;20123;-48
2023/07/17 01:57:30;;;;;;;0.75;0.32;;;;;;;13.22;100.00;100756.69;5052169;28;20036;-46
2023/07/17 01:59:55;;;;;;;1.33;0.28;;;;;;;13.17;100.00;100753.00;5040071;28;20355;-47
2023/07/17 02:02:21;;;;;;;1.67;0.30;;;;;;;13.06;100.00;100741.91;5048177;28;20053;-47
2023/07/17 02:04:46;;;;;;;0.65;0.20;;;;;;;13.00;100.00;100745.34;5055752;28;20055;-47
2023/07/17 02:07:11;;;;;;;0.65;0.60;;;;;;;13.01;100.00;100751.50;5062766;28;20031;-48
2023/07/17 02:09:37;;;;;;;0.47;0.32;;;;;;;12.90;100.00;100746.75;5052832;28;20055;-49
2023/07/17 02:12:02;;;;;;;6.15;1.42;;;;;;;12.79;100.00;100745.50;5060878;28;20115;-48
2023/07/17 02:14:27;;;;;;;1.60;0.20;;;;;;;12.68;100.00;100746.06;5045082;28;20090;-46
2023/07/17 02:16:53;;;;;;;4.68;0.75;;;;;;;12.59;100.00;100746.22;5046451;28;20033;-47
2023/07/17 02:19:19;;;;;;;2.08;0.68;;;;;;;12.49;100.00;100744.94;5048888;28;20111;-51
2023/07/17 02:21:44;;;;;;;1.45;0.30;;;;;;;12.44;100.00;100745.53;5051078;28;20036;-49
2023/07/17 02:24:09;;;;;;;0.55;0.38;;;;;;;12.43;100.00;100744.72;5048616;28;20037;-46
2023/07/17 02:26:34;;;;;;;1.17;0.50;;;;;;;12.35;100.00;100754.69;5056502;28;20336;-49
2023/07/17 02:29:00;;;;;;;5.25;1.33;;;;;;;12.31;100.00;100751.59;5047576;28;20508;-50
2023/07/17 02:31:25;;;;;;;2.85;0.30;;;;;;;12.29;100.00;100753.66;5057383;28;20024;-44
2023/07/17 02:33:50;;;;;;;3.92;1.05;;;;;;;12.25;100.00;100752.38;5039198;28;20174;-49
2023/07/17 02:36:16;;;;;;;1.00;0.30;;;;;;;12.23;100.00;100757.88;5067184;28;20123;-46
2023/07/17 02:38:41;;;;;;;1.00;0.30;;;;;;;12.17;100.00;100753.34;5049966;28;20059;-49
2023/07/17 02:41:06;;;;;;;0.30;0.00;;;;;;;12.21;100.00;100753.81;5055699;28;20114;-49
2023/07/17 02:43:32;;;;;;;3.35;0.95;;;;;;;12.23;100.00;100767.69;5051973;28;20574;-49
2023/07/17 02:45:57;;;;;;;2.72;0.40;;;;;;;12.19;100.00;100753.19;5056479;28;20132;-46
2023/07/17 02:48:22;;;;;;;1.05;0.22;;;;;;;12.13;100.00;100759.25;5059090;28;20086;-50
2023/07/17 02:50:51;;;;;;;2.03;0.82;;;;;;;12.04;100.00;100760.44;5051058;28;20044;-47
2023/07/17 02:53:16;;;;;;;0.40;0.20;;;;;;;12.00;100.00;100766.13;5047276;28;20056;-49
2023/07/17 02:55:42;;;;;;;3.95;0.73;;;;;;;12.03;100.00;100756.13;5061101;28;20140;-49
2023/07/17 02:58:07;;;;;;;0.45;0.30;;;;;;;11.96;100.00;100759.56;5056684;28;20041;-50
2023/07/17 03:00:34;;;;;;;0.68;0.68;;;;;;;11.92;100.00;100760.94;5051720;28;20112;-52
2023/07/17 03:02:59;;;;;;;3.60;1.55;;;;;;;11.92;100.00;100766.25;5055670;28;20395;-47
2023/07/17 03:05:24;;;;;;;1.83;0.43;;;;;;;11.96;100.00;100764.88;5046945;28;20490;-50
2023/07/17 03:07:50;;;;;;;2.60;0.52;;;;;;;12.03;100.00;100761.44;5057208;28;20032;-50
2023/07/17 03:10:16;;;;;;;1.92;0.30;;;;;;;12.05;100.00;100764.72;5050384;28;20163;-47
2023/07/17 03:12:41;;;;;;;4.13;0.40;;;;;;;12.06;100.00;100771.69;5051947;28;20024;-49
2023/07/17 03:15:08;;;;;;;3.83;1.23;;;;;;;12.09;100.00;100780.09;5052044;28;20044;-50
2023/07/17 03:17:34;;;;;;;1.23;0.10;;;;;;;12.12;100.00;100776.22;5049898;28;20025;-49
2023/07/17 03:19:59;;;;;;;3.30;0.68;;;;;;;12.11;100.00;100782.56;5043053;28;20465;-50
2023/07/17 03:22:26;;;;;;;2.92;0.30;;;;;;;12.05;100.00;100778.81;5056320;28;20139;-47
2023/07/17 03:24:52;;;;;;;1.92;0.88;;;;;;;12.08;100.00;100777.63;5046320;28;20033;-46
2023/07/17 03:27:17;;;;;;;7.38;1.75;;;;;;;12.13;100.00;100778.69;5056485;28;20055;-49
2023/07/17 03:29:42;;;;;;;3.03;1.85;;;;;;;12.29;100.00;100774.06;5055280;28;20078;-49
2023/07/17 03:32:08;;;;;;;0.43;0.22;;;;;;;12.35;100.00;100773.31;5054092;28;20049;-47
2023/07/17 03:34:33;;;;;;;0.77;0.30;;;;;;;12.38;100.00;100778.22;5041460;28;20514;-46
2023/07/17 03:36:59;;;;;;;3.53;0.55;;;;;;;12.36;100.00;100781.06;5053448;28;20450;-51
2023/07/17 03:39:24;;;;;;;0.38;0.15;;;;;;;12.38;100.00;100784.38;5043868;28;20031;-52
2023/07/17 03:41:49;;;;;;;0.88;0.40;;;;;;;12.40;100.00;100790.31;5053905;28;20185;-49
2023/07/17 03:44:15;;;;;;;0.40;0.40;;;;;;;12.46;100.00;100787.91;5036003;28;20444;-48
2023/07/17 03:46:40;;;;;;;0.55;0.32;;;;;;;12.56;100.00;100791.84;5043572;28;20020;-48
2023/07/17 03:49:05;;;;;;;1.25;0.30;;;;;;;12.65;100.00;100793.31;5052785;28;20070;-46
2023/07/17 03:51:31;;;;;;;3.13;0.45;;;;;;;12.76;100.00;100793.78;5044248;28;20037;-50
2023/07/17 03:53:56;;;;;;;0.98;0.32;;;;;;;12.80;100.00;100800.34;5045558;28;20532;-52
2023/07/17 03:56:21;;;;;;;2.05;0.60;;;;;;;12.92;100.00;100797.94;5049485;28;20028;-52
2023/07/17 03:58:47;;;;;;;3.33;0.73;;;;;;;12.86;100.00;100803.03;5057391;28;20036;-51
2023/07/17 04:01:13;;;;;;;6.60;0.30;;;;;;;12.98;100.00;100794.47;5048718;28;20554;-49
2023/07/17 04:03:38;;;;;;;2.08;0.25;;;;;;;13.05;100.00;100801.47;5045867;28;20104;-49
2023/07/17 04:06:03;;;;;;;1.58;0.60;;;;;;;13.10;100.00;100800.88;5047747;28;20486;-46
2023/07/17 04:08:29;;;;;;;3.97;0.75;;;;;;;13.23;100.00;100805.44;5055057;28;20177;-49
2023/07/17 04:10:54;;;;;;;1.08;0.55;;;;;;;13.18;100.00;100803.34;5050303;28;20033;-49
2023/07/17 04:13:20;;;;;;;6.95;1.13;;;;;;;13.23;100.00;100800.09;5029946;28;20398;-46
2023/07/17 04:15:46;;;;;;;2.00;0.82;;;;;;;13.28;100.00;100803.03;5031163;28;20029;-45
2023/07/17 04:18:11;;;;;;;5.75;0.90;;;;;;;13.38;100.00;100814.09;5055931;28;20120;-50
2023/07/17 04:20:39;;;;;;;1.65;0.77;;;;;;;13.50;100.00;100823.16;5055426;28;20060;-48
2023/07/17 04:23:05;;;;;;;1.92;0.90;;;;;;;13.64;100.00;100818.66;5052145;28;20037;-45
2023/07/17 04:25:30;;;;;;;5.20;1.40;;;;;;;13.80;100.00;100829.97;5047593;28;20032;-46
2023/07/17 04:27:56;;;;;;;4.63;1.38;;;;;;;13.90;100.00;100827.72;5044377;28;20448;-48
2023/07/17 04:30:21;;;;;;;2.15;0.77;;;;;;;13.97;100.00;100831.22;5048458;28;20098;-49
2023/07/17 04:32:47;;;;;;;8.82;2.63;;;;;;;14.08;100.00;100830.59;5045458;28;20060;-50
2023/07/17 04:35:12;;;;;;;3.22;1.52;;;;;;;14.15;100.00;100836.75;5044397;28;20489;-49
2023/07/17 04:37:37;;;;;;;7.80;2.08;;;;;;;14.17;100.00;100845.34;5053369;28;20068;-50
2023/07/17 04:40:05;;;;;;;2.65;0.95;;;;;;;14.24;100.00;100836.53;5051114;28;20032;-50
2023/07/17 04:42:30;;;;;;;1.55;1.40;;;;;;;14.24;100.00;100840.00;5042701;28;20044;-46
2023/07/17 04:44:55;;;;;;;4.25;1.10;;;;;;;14.23;100.00;100837.56;5041379;28;20025;-48
2023/07/17 04:47:21;;;;;;;1.83;0.80;;;;;;;14.17;100.00;100845.34;5039300;28;20033;-48
2023/07/17 04:49:46;;;;;;;3.20;0.88;;;;;;;14.16;100.00;100842.88;5037551;28;20049;-49
2023/07/17 04:52:12;;;;;;;2.38;0.90;;;;;;;14.21;100.00;100844.94;5056326;28;20116;-48
2023/07/17 04:54:37;;;;;;;1.75;0.98;;;;;;;14.23;100.00;100841.03;5039385;28;20180;-52
2023/07/17 04:57:03;;;;;;;1.52;0.70;;;;;;;14.18;100.00;100847.00;5051452;28;20386;-46
2023/07/17 04:59:28;;;;;;;3.75;1.67;;;;;;;14.20;100.00;100849.47;5042140;28;20036;-48
2023/07/17 05:01:54;;;;;;;2.20;1.25;;;;;;;14.28;100.00;100849.25;5047576;28;20576;-49
2023/07/17 05:04:19;;;;;;;4.90;0.95;;;;;;;14.30;100.00;100854.34;5047805;28;20060;-48
2023/07/17 05:06:45;;;;;;;4.15;1.13;;;;;;;14.28;100.00;100857.25;5046574;28;20538;-48
2023/07/17 05:09:10;;;;;;;2.85;1.45;;;;;;;14.31;100.00;100854.16;5048375;28;20033;-47
2023/07/17 05:11:35;;;;;;;5.65;1.13;;;;;;;14.35;100.00;100863.41;5059298;28;20060;-51
2023/07/17 05:14:01;;;;;;;3.88;1.33;;;;;;;14.40;100.00;100873.44;5052465;28;20033;-48
2023/07/17 05:16:27;;;;;;;4.43;1.55;;;;;;;14.43;100.00;100870.38;5049419;28;20044;-49
2023/07/17 05:18:52;;;;;;;6.03;1.48;;;;;;;14.47;100.00;100879.59;5058120;28;20595;-49
2023/07/17 05:21:17;;;;;;;1.80;0.73;;;;;;;14.48;100.00;100883.91;5044972;28;20047;-54
2023/07/17 05:23:43;;;;;;;9.15;2.13;;;;;;;14.42;100.00;100881.25;5051990;28;20040;-50
2023/07/17 05:26:08;;;;;;;3.83;1.25;;;;;;;14.39;100.00;100882.47;5045418;28;20065;-48
2023/07/17 05:28:34;;;;;;;4.25;1.60;;;;;;;14.47;100.00;100882.25;5050048;28;20106;-51
2023/07/17 05:30:59;;;;;;;3.88;0.95;;;;;;;14.54;100.00;100885.78;5046508;28;20032;-53
2023/07/17 05:33:25;;;;;;;3.85;1.52;;;;;;;14.51;100.00;100888.03;5046213;28;20025;-52
2023/07/17 05:35:51;;;;;;;3.33;1.05;;;;;;;14.52;100.00;100886.97;5051521;28;20041;-46
2023/07/17 05:38:16;;;;;;;10.88;2.65;;;;;;;14.71;100.00;100888.00;5044906;28;20028;-48
2023/07/17 05:40:42;;;;;;;2.40;0.95;;;;;;;14.72;100.00;100889.66;5057287;28;20039;-45
2023/07/17 05:43:08;;;;;;;1.67;1.13;;;;;;;14.69;100.00;100892.72;5050178;28;20044;-47
2023/07/17 05:45:34;;;;;;;9.15;1.48;;;;;;;14.68;100.00;100883.09;5052724;28;21443;-48
2023/07/17 05:47:59;;;;;;;4.95;2.08;;;;;;;14.79;100.00;100885.09;5042203;28;20021;-52
2023/07/17 05:50:25;;;;;;;4.20;0.90;;;;;;;14.81;100.00;100883.06;5051018;28;20033;-48
2023/07/17 05:52:50;;;;;;;5.22;1.27;;;;;;;14.77;100.00;100880.00;5049886;28;20628;-48
2023/07/17 05:55:16;;;;;;;5.68;1.45;;;;;;;14.64;100.00;100874.69;5051570;28;20445;-50
2023/07/17 05:57:44;;;;;;;8.07;1.40;;;;;;;14.71;100.00;100888.00;5051466;28;20192;-49
2023/07/17 06:00:14;;;;;;;3.88;1.52;;;;;;;14.82;100.00;100882.03;5045756;28;20045;-51
2023/07/17 06:02:40;;;;;;;3.20;1.25;;;;;;;14.88;100.00;100888.38;5047919;28;20044;-48
2023/07/17 06:05:06;;;;;;;4.57;2.30;;;;;;;14.93;100.00;100883.25;5052794;28;20040;-51
2023/07/17 06:07:32;;;;;;;3.30;1.38;;;;;;;14.99;100.00;100888.53;5045478;28;20714;-48
2023/07/17 06:09:58;;;;;;;5.60;1.17;;;;;;;14.92;100.00;100882.44;5054368;28;20123;-49
2023/07/17 06:12:23;;;;;;;3.55;1.40;;;;;;;14.99;100.00;100893.06;5050518;28;20116;-46
2023/07/17 06:14:49;;;;;;;3.40;1.30;;;;;;;15.18;100.00;100902.03;5022576;28;20132;-50
2023/07/17 06:17:14;;;;;;;2.90;1.77;;;;;;;15.33;100.00;100896.44;5040527;28;20122;-49
2023/07/17 06:19:39;;;;;;;5.18;1.25;;;;;;;15.27;100.00;100890.91;5053194;28;21080;-51
2023/07/17 06:22:05;;;;;;;1.75;0.65;;;;;;;15.27;100.00;100898.13;5051969;28;20025;-46
2023/07/17 06:24:30;;;;;;;2.92;1.25;;;;;;;15.35;100.00;100910.41;5051520;28;20033;-45
2023/07/17 06:26:55;;;;;;;1.98;1.02;;;;;;;15.41;100.00;100909.56;5054567;28;20028;-47
2023/07/17 06:29:21;;;;;;;3.58;1.15;;;;;;;15.64;100.00;100903.69;5049504;28;20025;-50
2023/07/17 06:31:46;;;;;;;11.57;3.22;;;;;;;15.43;100.00;100899.47;5053027;28;20024;-47
2023/07/17 06:34:11;;;;;;;2.80;1.65;;;;;;;15.70;100.00;100898.34;5050006;28;20037;-51
2023/07/17 06:36:37;;;;;;;2.78;1.55;;;;;;;15.97;100.00;100892.00;5047544;28;20029;-50
2023/07/17 06:39:02;;;;;;;6.35;1.58;;;;;;;15.90;100.00;100892.03;5052354;28;20028;-48
2023/07/17 06:41:27;;;;;;;6.93;1.85;;;;;;;15.73;100.00;100890.94;5037744;28;20494;-47
2023/07/17 06:43:53;;;;;;;6.28;1.67;;;;;;;15.50;100.00;100897.59;5050730;28;20080;-48
2023/07/17 06:46:19;;;;;;;6.53;1.02;;;;;;;15.83;100.00;100892.09;5057129;28;20071;-46
2023/07/17 06:48:44;;;;;;;3.92;0.90;;;;;;;15.90;100.00;100887.53;5048076;28;20116;-52
2023/07/17 06:51:09;;;;;;;3.50;1.48;;;;;;;16.04;100.00;100888.25;5055770;28;20036;-48
2023/07/17 06:53:35;;;;;;;1.05;1.02;;;;;;;16.09;100.00;100895.63;5052625;28;20051;-49
2023/07/17 06:56:00;;;;;;;1.38;0.98;;;;;;;16.24;100.00;100900.66;5045232;28;20114;-50
2023/07/17 06:58:26;;;;;;;3.30;0.90;;;;;;;16.33;100.00;100904.69;5044800;28;20340;-48
2023/07/17 07:00:59;;;;;;;5.00;1.80;;;;;;;16.26;100.00;100898.56;5049655;28;20024;-49
2023/07/17 07:03:26;;;;;;;6.35;1.92;;;;;;;16.39;100.00;100900.31;5050641;28;20373;-51
2023/07/17 07:05:56;;;;;;;7.18;1.75;;;;;;;16.36;100.00;100896.22;5054347;28;20077;-48
2023/07/17 07:08:25;;;;;;;4.18;1.92;;;;;;;16.45;100.00;100907.50;5054350;28;20024;-47
2023/07/17 07:10:52;;;;;;;2.88;0.70;;;;;;;16.57;100.00;100909.22;5055557;28;20025;-50
2023/07/17 07:13:19;;;;;;;1.48;1.00;;;;;;;16.58;100.00;100910.03;5052581;28;20024;-50
2023/07/17 07:15:44;;;;;;;3.80;1.25;;;;;;;16.85;100.00;100899.91;5047598;28;20169;-53
2023/07/17 07:18:09;;;;;;;5.65;0.88;;;;;;;16.85;100.00;100905.25;5052292;28;20470;-56
2023/07/17 07:20:35;;;;;;;2.47;1.23;;;;;;;16.73;100.00;100923.91;5055578;28;20031;-55
2023/07/17 07:23:00;;;;;;;3.38;0.77;;;;;;;17.08;100.00;100912.63;5048654;28;20100;-53
2023/07/17 07:25:25;;;;;;;1.52;0.70;;;;;;;17.37;100.00;100913.75;5050046;28;20048;-53
2023/07/17 07:27:51;;;;;;;4.55;1.23;;;;;;;17.51;100.00;100924.31;5055794;28;20495;-50
2023/07/17 07:30:16;;;;;;;4.47;1.33;;;;;;;17.65;100.00;100913.16;5053977;28;20351;-53
2023/07/17 07:32:41;;;;;;;2.22;1.17;;;;;;;17.89;100.00;100921.34;5051940;28;20028;-51
2023/07/17 07:35:07;;;;;;;4.68;1.58;;;;;;;17.71;100.00;100927.53;5043420;28;20041;-47
2023/07/17 07:37:32;;;;;;;1.95;1.15;;;;;;;18.12;100.00;100917.06;5046519;28;20056;-47
2023/07/17 07:39:58;;;;;;;1.33;0.85;;;;;;;18.01;100.00;100906.06;5049728;28;20037;-48
2023/07/17 07:42:23;;;;;;;2.15;1.55;;;;;;;18.41;100.00;100912.69;5045826;28;20389;-53
2023/07/17 07:44:48;;;;;;;2.97;0.63;;;;;;;18.59;100.00;100909.09;5041761;28;20028;-53
2023/07/17 07:47:14;;;;;;;2.40;0.65;;;;;;;18.90;100.00;100914.09;5029708;28;20544;-49
2023/07/17 07:49:39;;;;;;;5.00;0.93;;;;;;;19.33;100.00;100902.06;5040773;28;20083;-52
2023/07/17 07:52:05;;;;;;;3.00;0.70;;;;;;;19.57;100.00;100910.09;5039909;28;20400;-51
2023/07/17 07:54:30;;;;;;;3.30;1.02;;;;;;;19.46;100.00;100905.53;5043056;28;20043;-49
2023/07/17 07:56:55;;;;;;;2.97;0.70;;;;;;;19.57;100.00;100910.91;5049482;28;20147;-51
2023/07/17 07:59:21;;;;;;;1.52;1.42;;;;;;;19.39;100.00;100914.59;5041609;28;20064;-48
2023/07/17 08:01:46;;;;;;;5.90;0.30;;;;;;;19.45;100.00;100917.38;5044590;28;20132;-55
2023/07/17 08:04:11;;;;;;;1.65;0.38;;;;;;;19.27;100.00;100919.16;5043102;28;20396;-52
2023/07/17 08:06:37;;;;;;;2.70;0.60;;;;;;;19.36;100.00;100916.91;5049102;28;20177;-48
2023/07/17 08:09:02;;;;;;;2.03;0.20;;;;;;;19.50;100.00;100918.28;5051297;28;20052;-48
2023/07/17 08:11:27;;;;;;;2.17;0.47;;;;;;;19.46;100.00;100924.38;5048745;28;20434;-53
2023/07/17 08:13:53;;;;;;;1.90;0.40;;;;;;;19.42;100.00;100918.66;5049247;28;20044;-58
2023/07/17 08:16:18;;;;;;;3.58;0.88;;;;;;;19.39;100.00;100928.03;5046407;28;20050;-60
2023/07/17 08:18:43;;;;;;;4.82;0.77;;;;;;;19.61;100.00;100927.34;5055774;28;20025;-50
2023/07/17 08:21:09;;;;;;;1.85;1.02;;;;;;;20.01;100.00;100929.19;5045832;28;20048;-53
2023/07/17 08:23:35;;;;;;;2.70;0.43;;;;;;;20.37;100.00;100919.84;5052330;28;20033;-52
2023/07/17 08:26:00;;;;;;;3.10;0.30;;;;;;;20.46;100.00;100922.91;5051697;28;20040;-53
2023/07/17 08:28:26;;;;;;;0.98;0.10;;;;;;;20.61;100.00;100922.38;5049440;28;20131;-50
2023/07/17 08:30:52;;;;;;;3.10;0.50;;;;;;;20.75;100.00;100920.13;5014501;28;20437;-59
2023/07/17 08:33:18;;;;;;;0.35;0.05;;;;;;;21.01;100.00;100922.09;5039232;28;20534;-64
2023/07/17 08:35:43;;;;;;;1.50;0.40;;;;;;;21.33;100.00;100916.06;5041640;28;20388;-55
2023/07/17 08:38:09;;;;;;;4.78;1.08;;;;;;;21.26;100.00;100918.13;5042239;28;20035;-54
2023/07/17 08:40:39;;;;;;;0.68;0.20;;;;;;;21.12;100.00;100915.00;5037012;28;20029;-50
2023/07/17 08:43:06;;;;;;;0.70;0.20;;;;;;;21.12;100.00;100918.50;5057821;28;20028;-51
2023/07/17 08:45:33;;;;;;;2.50;0.40;;;;;;;21.54;100.00;100919.81;5043481;28;20275;-52
2023/07/17 08:47:59;;;;;;;0.47;0.45;;;;;;;21.58;100.00;100914.72;5049829;28;20025;-53
2023/07/17 08:50:26;;;;;;;0.70;0.40;;;;;;;21.54;100.00;100912.53;5043104;28;20035;-50
2023/07/17 08:52:54;;;;;;;0.98;0.77;;;;;;;21.95;100.00;100921.03;5039107;28;20266;-55
2023/07/17 08:55:21;;;;;;;1.27;0.60;;;;;;;21.83;100.00;100914.19;5039184;28;20097;-59
2023/07/17 08:57:48;;;;;;;5.60;0.43;;;;;;;21.65;100.00;100915.34;5043795;28;20032;-54
2023/07/17 09:00:16;;;;;;;3.00;1.13;;;;;;;21.53;100.00;100926.28;5043311;28;20029;-54
2023/07/17 09:02:42;;;;;;;3.42;0.55;;;;;;;21.40;100.00;100923.97;5048461;28;20094;-57
2023/07/17 09:05:08;;;;;;;0.32;0.10;;;;;;;21.47;100.00;100924.59;5042560;28;20517;-54
2023/07/17 09:07:33;;;;;;;2.55;0.63;;;;;;;21.58;100.00;100928.22;5047199;28;20101;-52
2023/07/17 09:10:17;;;;;;;1.17;0.50;;;;;;;21.67;100.00;100926.69;5045665;28;20381;-55
2023/07/17 09:12:43;;;;;;;1.73;0.75;;;;;;;21.31;100.00;100924.38;5046742;28;20075;-54
2023/07/17 09:15:14;;;;;;;0.57;0.10;;;;;;;21.70;100.00;100932.41;5042287;28;20659;-52
2023/07/17 09:17:39;;;;;;;8.33;1.20;;;;;;;21.66;100.00;100923.19;5052768;28;20032;-50
2023/07/17 09:20:10;;;;;;;1.27;0.20;;;;;;;21.71;100.00;100927.81;5042434;28;20055;-55
2023/07/17 09:22:37;;;;;;;0.35;0.05;;;;;;;21.86;100.00;100936.06;5036160;28;20021;-50
2023/07/17 09:25:03;;;;;;;0.68;0.30;;;;;;;22.06;100.00;100929.25;5055507;28;20433;-51
2023/07/17 09:27:28;;;;;;;0.25;0.25;;;;;;;21.94;100.00;100926.69;5055105;28;20094;-55
2023/07/17 09:29:53;;;;;;;0.60;0.38;;;;;;;21.94;100.00;100924.81;5046905;28;20032;-51
2023/07/17 09:32:19;;;;;;;0.28;0.15;;;;;;;21.68;100.00;100922.94;5040916;28;20111;-52
2023/07/17 09:34:54;;;;;;;0.88;0.22;;;;;;;21.80;100.00;100942.50;5038844;28;20404;-49
2023/07/17 09:37:19;;;;;;;0.13;0.13;;;;;;;21.84;100.00;100935.53;5048995;28;20474;-61
2023/07/17 09:39:45;;;;;;;1.58;0.40;;;;;;;22.42;100.00;100933.06;5049054;28;20082;-52
2023/07/17 09:42:23;;;;;;;1.38;0.25;;;;;;;22.46;100.00;100938.75;5048004;28;20515;-55
2023/07/17 09:44:50;;;;;;;1.33;0.10;;;;;;;22.71;100.00;100935.44;5041308;28;20377;-54
2023/07/17 09:47:16;;;;;;;1.45;0.20;;;;;;;23.42;100.00;100935.00;5044927;28;20045;-54
2023/07/17 09:49:42;;;;;;;1.23;0.55;;;;;;;23.49;100.00;100936.38;5044348;28;20029;-62
2023/07/17 09:52:08;;;;;;;1.55;0.20;;;;;;;23.56;100.00;100930.69;5052168;28;20047;-55
2023/07/17 09:54:34;;;;;;;1.38;0.17;;;;;;;23.61;100.00;100935.31;5043724;28;20063;-53
2023/07/17 09:57:00;;;;;;;0.85;0.70;;;;;;;23.56;100.00;100933.41;5054245;28;20028;-57
2023/07/17 09:59:31;;;;;;;0.32;0.10;;;;;;;23.22;100.00;100936.53;5052858;28;20125;-53
2023/07/17 10:01:58;;;;;;;;;;;;;;;22.76;100.00;100938.97;5052583;28;20044;-62
2023/07/17 10:04:37;;;;;;;0.35;0.20;;;;;;;22.39;100.00;100944.41;5035049;28;19986;-60
2023/07/17 10:07:03;;;;;;;3.70;0.10;;;;;;;21.84;100.00;100938.22;5051350;28;20251;-58
2023/07/17 10:09:29;;;;;;;2.17;0.17;;;;;;;20.99;100.00;100961.16;5018522;28;20482;-51
2023/07/17 10:11:55;;;;;;;1.05;0.45;;;;;;;20.43;100.00;100956.56;5040971;28;20037;-50
2023/07/17 10:14:21;;;;;;;1.27;0.32;;;;;;;20.21;100.00;100975.31;5049068;28;20048;-55
2023/07/17 10:16:46;;;;;;;1.52;0.43;;;;;;;20.17;100.00;100971.47;5043520;28;20601;-53
2023/07/17 10:19:12;;;;;;;0.55;0.55;;;;;;;20.04;100.00;100974.47;5044952;28;20043;-52
2023/07/17 10:21:57;;;;;;;2.00;0.20;;;;;;;20.24;100.00;100974.03;5027848;28;20033;-54
2023/07/17 10:24:24;;;;;;;0.80;0.57;;;;;;;20.26;100.00;100972.72;5037462;28;20493;-53
2023/07/17 10:26:50;;;;;;;0.15;0.10;;;;;;;20.40;100.00;100967.00;5042642;28;20823;-52
2023/07/17 10:29:15;;;;;;;2.58;0.30;;;;;;;20.33;100.00;100972.53;5050590;28;20488;-50
2023/07/17 10:31:50;;;;;;;1.35;0.32;;;;;;;20.45;100.00;100972.47;5053682;28;20029;-51
2023/07/17 10:34:15;;;;;;;2.90;0.20;;;;;;;20.21;100.00;100980.69;5042027;28;20453;-53
2023/07/17 10:36:44;;;;;;;0.17;0.00;;;;;;;20.15;100.00;100988.91;5044052;28;20020;-52
2023/07/17 10:39:16;;;;;;;1.52;0.30;;;;;;;20.15;100.00;100992.41;5047960;28;20125;-52
2023/07/17 10:41:42;;;;;;;1.17;0.10;;;;;;;20.22;100.00;100993.09;5047350;28;20065;-52
2023/07/17 10:44:08;;;;;;;0.95;0.00;;;;;;;20.36;100.00;100993.59;5055657;28;20170;-51
2023/07/17 10:46:35;;;;;;;1.05;0.10;;;;;;;20.42;100.00;100989.09;5036106;28;20103;-48
2023/07/17 10:49:18;;;;;;;1.45;0.05;;;;;;;21.27;100.00;100985.31;5046652;28;20028;-48
2023/07/17 10:51:49;;;;;;;21.48;1.50;;;;;;;22.03;100.00;100989.16;5043685;28;20067;-51
2023/07/17 10:54:16;;;;;;;4.13;0.10;;;;;;;22.22;100.00;100982.34;5043221;28;20093;-54
2023/07/17 10:56:45;;;;;;;0.35;0.00;;;;;;;22.30;100.00;100976.44;5039087;28;20029;-55
2023/07/17 10:59:11;;;;;;;0.55;0.10;;;;;;;22.50;100.00;100964.19;5047446;28;20032;-54
2023/07/17 11:01:36;;;;;;;2.30;0.20;;;;;;;22.60;100.00;100965.09;5049472;28;20041;-63
2023/07/17 11:04:07;;;;;;;0.68;0.20;;;;;;;22.32;100.00;100982.41;5047819;28;20063;-54
2023/07/17 11:06:32;;;;;;;2.25;0.05;;;;;;;22.32;100.00;100978.91;5045778;28;20071;-58
2023/07/17 11:08:59;;;;;;;0.95;0.10;;;;;;;22.23;100.00;100985.84;5042068;28;20119;-58
2023/07/17 11:11:25;;;;;;;0.82;0.10;;;;;;;22.34;100.00;100974.06;5037174;28;20611;-58